Aérodrome :
LOGIN :

S'inscrire | Disclaimer

   EN    FR    IT 

 










Légende :    VFR   VFR Marginal   IFR   IFR Intensif   IFR Très Intensif
Visi : 
Plafond : 
>= 8 km
>= 3000ft
5 à 8 km
1000 à 3000 ft
1500m à 5 km
500 à 1000 ft
800 à 1500m
200 à 500 ft
< 800m
< 200 ft
Symboles :   Orages  Brouillard  Fortes neiges  Fortes précipitations  Vent > 20 kt
SIGMETs :   Divers  Orages  Givrage  Turbulence  Onde Orograph.  Cendres Volcan.






- Altitude de l'aérodrome : 778 ft
- Code IATA : BRQ


LKTB - Brno-Turany

DERNIER METAR :
  • 041030Z 12008KT 9000 OVC009 03/01 Q1001 R27/29//95 NOSIG

METARs EXPIRÉS :
  • 041000Z 13009KT 8000 OVC008 02/01 Q1001 R27/29//95 NOSIG
  • 040930Z 12010KT 7000 OVC008 02/01 Q1001 R27/29//95 NOSIG
  • 040900Z 13008KT 090V160 7000 OVC007 02/01 Q1001 R27/29//95 NOSIG
  • 040830Z 13013KT 9000 OVC007 02/01 Q1001 R27/29//95 NOSIG
  • 040800Z 12012KT 9999 OVC008 02/01 Q1000 R27/29//95 NOSIG

TAF TAF LKTB
Valide du 04 à 06h jusqu'au 05 à 12h UTC


040500Z 0406/0512 14016KT 9999 OVC009
TEMPO 0406/0411 4000 -DZ BR BKN004
PROB40
TEMPO 0406/0414 15018G28KT
TEMPO 0411/0419 9999 OVC013
BECMG 0414/0416 15011KT
TEMPO 0419/0511 2500 BR BKN004
PROB30
TEMPO 0504/0512 14014G24KT



MET'MAP, la Météo Aéronautique d'un coup d'oeil ! - Copyright ORBIFLY Décembre 2007 - Disclaimer

ORBIFLY MET'MAP TEAM :

Programmation & Développement : Alexandra Zaïnal
Sur une idée originale de : Baudouin d'Aumeries
Assistance à la programmation : Marc-Olivier Méhu
Soutien technique & logistique : Manuel Goepfert

Contact : metmap@orbifly.com




SOURCES & CREDITS :

   NOAA